Terminal Aerodrome Forecast
Issued by NWS Cleveland, OH

Home | Current Version | Previous Version | Text Only | Print | Product List | Glossary On
Versions: 1 2 3 4 5 6 7 8 9 10 11 12 13 14 15
000
FTUS41 KCLE 302300
TAFCAK
TAF
KCAK 302327Z 3100/3124 VRB03KT P6SM BKN040 OVC120
     FM311600 22007KT 5SM -SHRA BR OVC025
     FM312100 VRB05KT 3SM BR VCSH OVC010=

USA.gov is the U.S. government's official web portal to all federal, state and local government web resources and services.